ADDS METAR Data INFO
IDs: Format: Raw Decoded Include TAF

Data at: 2337 UTC 15 Dec 2017

KBAC 152315Z AUTO 14010KT 5SM -SN FEW004 SCT025 BKN030 M02/M02 A2960 RMK AO2
KBAC 152255Z AUTO 14008KT 5SM -SN FEW005 BKN026 OVC031 M02/M02 A2961 RMK AO2
KBAC 152235Z AUTO 15008KT 6SM BR FEW005 SCT023 BKN035 M02/M02 A2961 RMK AO2
KBAC 152215Z AUTO 14009KT 6SM BR FEW035 BKN055 M02/M02 A2961 RMK AO2
KBAC 152155Z AUTO 14008KT 7SM BKN039 SCT046 M02/M02 A2960 RMK AO2
KBAC 152135Z AUTO 15008KT 4SM -SN BKN039 M02/M02 A2962 RMK AO2
KBAC 152115Z AUTO 15006KT 4SM -SN FEW028 FEW036 M02/M02 A2963 RMK AO2
KBAC 152055Z AUTO 17008KT 7SM -UP FEW034 SCT043 BKN048 M02/M02 A2963 RMK AO2
KBAC 152035Z AUTO 17006KT 10SM BKN044 OVC055 M02/M02 A2964 RMK AO2
KBAC 152015Z AUTO 16009KT 10SM FEW020 BKN046 OVC055 M02/M02 A2964 RMK AO2
KBAC 151955Z AUTO 17008KT 10SM SCT021 BKN044 OVC095 M02/M02 A2966 RMK AO2
KBAC 151935Z AUTO 18007KT 9SM FEW024 SCT031 BKN046 M03/M03 A2967 RMK AO2
KBAC 151915Z AUTO 17008KT 10SM SCT006 SCT049 BKN060 M03/M03 A2969 RMK AO2
KBAC 151855Z AUTO 18008KT 9SM OVC005 M03/M03 A2971 RMK AO2
KBAC 151835Z AUTO 19008KT 9SM OVC005 M04/M03 A2971 RMK AO2
KBAC 151815Z AUTO 18006KT 10SM OVC005 M04/M04 A2972 RMK AO2
KBAC 151755Z AUTO 18008KT 10SM BKN005 BKN095 M04/M04 A2973 RMK AO2
KBAC 151735Z AUTO 19011KT 10SM BKN006 BKN065 BKN095 M05/M05 A2975 RMK AO2
KBAC 151715Z AUTO 18008KT 10SM BKN006 BKN065 BKN090 M05/M05 A2976 RMK AO2
KBAC 151655Z AUTO 17009KT 10SM BKN006 BKN070 M05/M05 A2977 RMK AO2
KBAC 151635Z AUTO 16009KT 10SM BKN006 OVC070 M06/M06 A2978 RMK AO2
KBAC 151615Z AUTO 16008KT 10SM SCT006 SCT037 OVC080 M06/M06 A2978 RMK AO2
KBAC 151555Z AUTO 16009KT 8SM BKN005 BKN037 OVC080 M06/M06 A2980 RMK AO2
KBAC 151535Z AUTO 18007KT 9SM OVC005 M06/M06 A2980 RMK AO2
KBAC 151515Z AUTO 17008KT 10SM OVC006 M07/M07 A2980 RMK AO2
KBAC 151455Z AUTO 17009KT 10SM OVC007 M07/M07 A2982 RMK AO2
KBAC 151435Z AUTO 17008KT 10SM OVC008 M07/M07 A2981 RMK AO2
KBAC 151415Z AUTO 16006G13KT 10SM OVC008 M07/M07 A2983 RMK AO2
KBAC 151355Z AUTO 16008KT 10SM BKN008 BKN032 OVC050 M07/M07 A2983 RMK AO2
KBAC 151335Z AUTO 16008KT 10SM BKN009 BKN018 OVC046 M07/M07 A2984 RMK AO2
KBAC 151315Z AUTO 17008KT 9SM FEW010 BKN017 OVC045 M07/M07 A2986 RMK AO2
KBAC 151255Z AUTO 16008KT 5SM -SN BKN010 OVC017 M07/M07 A2986 RMK AO2
KBAC 151235Z AUTO 15007KT 6SM -SN BKN011 OVC016 M07/M07 A2987 RMK AO2
KBAC 151215Z AUTO 14007KT 7SM SCT011 OVC017 M07/M07 A2988 RMK AO2
KBAC 151155Z AUTO 15006KT 5SM -SN OVC017 M07/M07 A2987 RMK AO2
KBAC 151135Z AUTO 15005KT 3SM -SN FEW010 OVC018 M07/M07 A2988 RMK AO2
KBAC 151115Z AUTO 12007KT 6SM -SN SCT010 OVC019 M07/M07 A2989 RMK AO2
KBAC 151055Z AUTO 12006KT 9SM -SN BKN010 BKN021 OVC035 M07/M07 A2989 RMK AO2
KBAC 151035Z AUTO 13007KT 8SM -SN FEW010 OVC032 M07/M07 A2990 RMK AO2
KBAC 151015Z AUTO 14006KT 10SM -SN FEW010 OVC030 M07/M07 A2990 RMK AO2
KBAC 150955Z AUTO 11007KT 10SM BKN011 OVC030 M07/M07 A2992 RMK AO2
KBAC 150935Z AUTO 13004KT 10SM OVC011 M07/M07 A2993 RMK AO2
KBAC 150915Z AUTO 10005KT 10SM OVC010 M07/M07 A2994 RMK AO2
KBAC 150855Z AUTO 10004KT 10SM BKN010 OVC032 M07/M07 A2994 RMK AO2
KBAC 150835Z AUTO 11006KT 10SM SCT007 BKN011 OVC032 M07/M07 A2994 RMK AO2
KBAC 150815Z AUTO 09007KT 10SM OVC006 M07/M07 A2995 RMK AO2
KBAC 150755Z AUTO 09006KT 10SM M07/M07 A2995 RMK AO2
KBAC 150735Z AUTO 09007KT 9SM OVC005 M07/M07 A2996 RMK AO2
KBAC 150715Z AUTO 09008KT 7SM OVC005 M06/M06 A2996 RMK AO2
KBAC 150655Z AUTO 09008KT 8SM OVC005 M06/M06 A2996 RMK AO2
KBAC 150635Z AUTO 06007G12KT 10SM BKN005 OVC008 M06/M06 A2996 RMK AO2
KBAC 150615Z AUTO 06010KT 10SM OVC004 M06/M06 A2996 RMK AO2
KBAC 150555Z AUTO 06007KT 9SM M05/M04 A2996 RMK AO2
KBAC 150535Z AUTO 05010KT 9SM -DZ BKN005 BKN011 OVC022 M04/M04 A2996 RMK AO2
KBAC 150515Z AUTO 33007KT 10SM FEW011 SCT021 BKN026 M01/M01 A2996 RMK AO2
KBAC 150455Z AUTO 32008KT 10SM SCT011 BKN020 OVC041 M01/M01 A2996 RMK AO2
KBAC 150435Z AUTO 31007KT 8SM -SN SCT010 BKN014 OVC039 M01/M01 A2996 RMK AO2
KBAC 150415Z AUTO 35005KT 5SM -SN OVC013 M02/M02 A2997 RMK AO2
KBAC 150355Z AUTO 33004KT 10SM -RA FEW008 OVC013 M02/M02 A2998 RMK AO2
KBAC 150335Z AUTO 30005KT 10SM -RA FEW003 SCT007 OVC012 M02/M01 A2998 RMK AO2
KBAC 150315Z AUTO 29007KT 4SM -SN FEW004 SCT011 BKN017 M01/M01 A2999 RMK AO2
KBAC 150255Z AUTO 27009KT 7SM -RA SCT013 SCT018 OVC037 M01/M01 A2999 RMK AO2
KBAC 150235Z AUTO 27009KT 4SM -DZ BKN013 BKN018 OVC023 M01/M01 A3000 RMK AO2
KBAC 150215Z AUTO 27010KT 4SM -SN FEW004 SCT020 BKN026 M02/M02 A3000 RMK AO2
KBAC 150155Z AUTO 27010KT 9SM -SN FEW025 BKN034 OVC049 M02/M02 A3001 RMK AO2
KBAC 150135Z AUTO 27007KT 10SM FEW026 OVC045 M02/M02 A3002 RMK AO2
KBAC 150115Z AUTO 27007KT 10SM OVC044 M02/M02 A3002 RMK AO2
KBAC 150055Z AUTO 27009KT 10SM FEW025 SCT033 OVC042 M02/M02 A3003 RMK AO2
KBAC 150035Z AUTO 29008KT 10SM FEW027 OVC043 M02/M02 A3003 RMK AO2
KBAC 150015Z AUTO 30009KT 10SM OVC044 M02/M02 A3004 RMK AO2
KBAC 142355Z AUTO 29009KT 10SM FEW036 OVC046 M02/M02 A3004 RMK AO2
KBAC 142335Z AUTO 28007KT 10SM FEW026 OVC046 M02/M02 A3005 RMK AO2
KBAC 142315Z AUTO 27009KT 10SM FEW020 OVC044 M03/M02 A3005 RMK AO2
KBAC 142255Z AUTO 27007KT 10SM -SN BKN020 OVC045 M03/M03 A3005 RMK AO2
KBAC 142235Z AUTO 28008KT 10SM -SN BKN020 OVC048 M03/M03 A3006 RMK AO2
KBAC 142215Z AUTO 28009KT 9SM -SN OVC020 M03/M03 A3006 RMK AO2
KBAC 142155Z AUTO 29008KT 10SM OVC019 M03/M03 A3006 RMK AO2
KBAC 142135Z AUTO 30007KT 10SM OVC021 M03/M03 A3006 RMK AO2
KBAC 142115Z AUTO 31006KT 10SM OVC018 M03/M04 A3006 RMK AO2
KBAC 142055Z AUTO 33008KT 10SM OVC016 M03/M04 A3006 RMK AO2
KBAC 142035Z AUTO 33009KT 10SM OVC018 M03/M04 A3007 RMK AO2
KBAC 142015Z AUTO 33010G16KT 10SM OVC019 M03/M04 A3006 RMK AO2
KBAC 141955Z AUTO 33009KT 10SM BKN019 OVC023 M03/M04 A3007 RMK AO2
KBAC 141935Z AUTO 34014KT 10SM OVC020 M03/M04 A3007 RMK AO2
KBAC 141915Z AUTO 33014KT 10SM OVC017 M04/M04 A3008 RMK AO2
KBAC 141855Z AUTO 33011KT 10SM BKN018 OVC023 M03/M04 A3008 RMK AO2
KBAC 141835Z AUTO 33014KT 10SM BKN016 OVC022 M04/M04 A3009 RMK AO2
KBAC 141815Z AUTO 35010G18KT 10SM -UP OVC014 M04/M04 A3009 RMK AO2
KBAC 141755Z AUTO 35014KT 10SM -UP OVC013 M04/M04 A3009 RMK AO2
KBAC 141735Z AUTO 33010KT 10SM FEW010 SCT014 BKN036 M04/M04 A3008 RMK AO2
KBAC 141715Z AUTO 34007KT 10SM FEW009 FEW013 FEW036 M04/M04 A3008 RMK AO2
KBAC 141655Z AUTO 34006KT 10SM CLR M05/M05 A3008 RMK AO2
KBAC 141635Z AUTO 34005KT 9SM FEW007 FEW011 M05/M05 A3008 RMK AO2
KBAC 141615Z AUTO 01006KT 4SM -RA FEW008 M05/M05 A3007 RMK AO2
KBAC 141555Z AUTO 01008KT 3SM -DZ FEW006 M05/M05 A3007 RMK AO2
KBAC 141535Z AUTO 02008KT 1 1/2SM -DZ BKN005 M05/M05 A3006 RMK AO2
KBAC 141515Z AUTO 02007KT 7SM -RA OVC007 M05/M05 A3005 RMK AO2
KBAC 141455Z AUTO 02007KT 10SM OVC009 M05/M05 A3003 RMK AO2
KBAC 141435Z AUTO 02004KT 10SM OVC011 M05/M05 A3002 RMK AO2
KBAC 141415Z AUTO 03003KT 10SM OVC011 M05/M05 A3001 RMK AO2
KBAC 141355Z AUTO 00000KT 10SM OVC011 M05/M05 A3001 RMK AO2
KBAC 141335Z AUTO 00000KT 10SM BKN012 OVC018 M05/M05 A3000 RMK AO2
KBAC 141315Z AUTO 00000KT 10SM FEW012 OVC019 M05/M05 A3000 RMK AO2
KBAC 141255Z AUTO 00000KT 10SM -SN BKN011 OVC019 M05/M05 A2999 RMK AO2
KBAC 141235Z AUTO 00000KT 10SM -SN BKN011 OVC024 M05/M05 A2999 RMK AO2
KBAC 141215Z AUTO 00000KT 9SM -SN OVC011 M05/M05 A2999 RMK AO2
KBAC 141155Z AUTO 00000KT 7SM -SN BKN010 OVC026 M05/M05 A2998 RMK AO2